Time;durP1;ratioP1;P1;durP2;ratioP2;P2;SDS_P1;SDS_P2;PMS_P1;PMS_P2;Temp;Humidity;BMP_temperature;BMP_pressure;BME280_temperature;BME280_humidity;BME280_pressure;Samples;Min_cycle;Max_cycle;Signal;HPM_P1;HPM_P2
2023/12/07 00:00:50;;;;;;;15.38;8.27;;;2.60;99.90;;;;;;5094518;28;20055;-67
2023/12/07 00:03:16;;;;;;;15.57;7.85;;;2.60;99.90;;;;;;5094679;28;20028;-67
2023/12/07 00:05:41;;;;;;;17.25;8.40;;;2.50;99.90;;;;;;5094514;28;20039;-67
2023/12/07 00:08:10;;;;;;;15.48;8.10;;;2.40;99.90;;;;;;5094467;28;20028;-67
2023/12/07 00:10:36;;;;;;;17.80;8.20;;;2.40;99.90;;;;;;5094645;28;20044;-67
2023/12/07 00:13:02;;;;;;;17.00;8.68;;;2.30;99.90;;;;;;5094516;28;20031;-67
2023/12/07 00:15:27;;;;;;;13.73;7.30;;;2.30;99.90;;;;;;5094526;28;20021;-67
2023/12/07 00:17:53;;;;;;;17.38;8.75;;;2.20;99.90;;;;;;5094417;28;20024;-67
2023/12/07 00:20:19;;;;;;;16.80;8.10;;;2.20;99.90;;;;;;5094303;28;20483;-67
2023/12/07 00:22:44;;;;;;;17.75;7.80;;;2.20;99.90;;;;;;5094310;28;20036;-67
2023/12/07 00:25:10;;;;;;;14.43;7.75;;;2.10;99.90;;;;;;5094206;28;20032;-68
2023/12/07 00:27:35;;;;;;;17.83;8.43;;;2.10;99.90;;;;;;5094176;28;20040;-67
2023/12/07 00:30:01;;;;;;;13.73;7.82;;;2.00;99.90;;;;;;5094027;28;20043;-67
2023/12/07 00:32:27;;;;;;;15.80;8.65;;;1.90;99.90;;;;;;5094076;28;20403;-67
2023/12/07 00:34:53;;;;;;;14.45;7.68;;;1.90;99.90;;;;;;5094039;28;20016;-67
2023/12/07 00:37:18;;;;;;;16.40;8.45;;;1.90;99.90;;;;;;5094104;28;20037;-67
2023/12/07 00:39:44;;;;;;;14.27;8.45;;;1.90;99.90;;;;;;5092896;28;20096;-67
2023/12/07 00:42:09;;;;;;;15.00;7.80;;;1.90;99.90;;;;;;5093994;28;20052;-67
2023/12/07 00:44:42;;;;;;;13.70;7.72;;;1.90;99.90;;;;;;5093896;28;20033;-67
2023/12/07 00:47:07;;;;;;;14.48;8.27;;;1.90;99.90;;;;;;5093911;28;20032;-67
2023/12/07 00:49:33;;;;;;;20.73;8.63;;;1.80;99.90;;;;;;5093595;28;20027;-67
2023/12/07 00:51:58;;;;;;;17.48;8.27;;;1.80;99.90;;;;;;5092782;28;20036;-68
2023/12/07 00:54:24;;;;;;;14.70;8.00;;;1.80;99.90;;;;;;5093597;28;20048;-68
2023/12/07 00:56:51;;;;;;;15.75;7.80;;;1.80;99.90;;;;;;5093680;28;20029;-67
2023/12/07 00:59:16;;;;;;;16.10;7.53;;;1.70;99.90;;;;;;5093423;28;20032;-67
2023/12/07 01:01:42;;;;;;;16.00;8.10;;;1.70;99.90;;;;;;5093520;28;20084;-68
2023/12/07 01:04:07;;;;;;;12.45;7.38;;;1.60;99.90;;;;;;5093292;28;20539;-67
2023/12/07 01:06:33;;;;;;;12.20;7.07;;;1.60;99.90;;;;;;5093448;28;20033;-67
2023/12/07 01:08:59;;;;;;;12.05;7.15;;;1.60;99.90;;;;;;5093245;28;20071;-67
2023/12/07 01:11:25;;;;;;;14.82;7.38;;;1.50;99.90;;;;;;5093373;28;20025;-68
2023/12/07 01:13:50;;;;;;;15.00;6.93;;;1.50;99.90;;;;;;5093327;28;20060;-67
2023/12/07 01:16:16;;;;;;;16.15;7.97;;;1.40;99.90;;;;;;5093278;28;20028;-67
2023/12/07 01:18:41;;;;;;;13.98;7.35;;;1.40;99.90;;;;;;5093101;28;20028;-67
2023/12/07 01:21:07;;;;;;;16.60;7.75;;;1.40;99.90;;;;;;5093111;28;20036;-67
2023/12/07 01:23:33;;;;;;;23.45;8.60;;;1.40;99.90;;;;;;5093210;28;20055;-67
2023/12/07 01:26:01;;;;;;;14.63;7.72;;;1.40;99.90;;;;;;5093269;28;20032;-67
2023/12/07 01:28:27;;;;;;;14.98;7.47;;;1.40;99.90;;;;;;5093026;28;20028;-67
2023/12/07 01:30:53;;;;;;;21.13;9.40;;;1.40;99.90;;;;;;5092375;28;20091;-67
2023/12/07 01:33:19;;;;;;;16.45;8.07;;;1.30;99.90;;;;;;5092921;28;20036;-67
2023/12/07 01:35:44;;;;;;;19.23;8.10;;;1.30;99.90;;;;;;5092897;28;20509;-67
2023/12/07 01:38:10;;;;;;;15.85;7.45;;;1.30;99.90;;;;;;5091951;28;20036;-67
2023/12/07 01:40:35;;;;;;;18.58;8.00;;;1.20;99.90;;;;;;5092869;28;20057;-67
2023/12/07 01:43:01;;;;;;;17.67;8.43;;;1.20;99.90;;;;;;5092777;28;20039;-67
2023/12/07 01:45:27;;;;;;;18.95;8.02;;;1.10;99.90;;;;;;5092771;28;20036;-67
2023/12/07 01:47:54;;;;;;;19.15;8.15;;;1.10;99.90;;;;;;5092520;28;20062;-67
2023/12/07 01:50:23;;;;;;;18.50;9.13;;;1.00;99.90;;;;;;5092426;28;20032;-67
2023/12/07 01:52:52;;;;;;;17.02;8.38;;;1.00;99.90;;;;;;5092730;28;20020;-67
2023/12/07 01:55:18;;;;;;;16.27;7.63;;;1.00;99.90;;;;;;5092590;28;20087;-67
2023/12/07 01:57:45;;;;;;;14.98;7.82;;;1.00;99.90;;;;;;5092674;28;20025;-67
2023/12/07 02:00:14;;;;;;;16.45;8.05;;;1.00;99.90;;;;;;5092440;28;20027;-67
2023/12/07 02:02:40;;;;;;;32.40;10.85;;;1.00;99.90;;;;;;5092491;28;20020;-67
2023/12/07 02:05:06;;;;;;;20.10;9.05;;;0.90;99.90;;;;;;5092467;28;20058;-68
2023/12/07 02:07:34;;;;;;;20.02;8.45;;;1.00;99.90;;;;;;5091333;28;20063;-67
2023/12/07 02:10:00;;;;;;;18.50;9.23;;;1.00;99.90;;;;;;5092502;28;20028;-68
2023/12/07 02:12:29;;;;;;;18.70;8.32;;;1.00;99.90;;;;;;5092473;28;20071;-68
2023/12/07 02:14:56;;;;;;;13.25;7.20;;;1.00;99.90;;;;;;5091399;28;20031;-67
2023/12/07 02:17:26;;;;;;;19.65;8.90;;;1.00;99.90;;;;;;5092324;28;20562;-67
2023/12/07 02:20:14;;;;;;;16.88;7.70;;;1.00;99.90;;;;;;5092260;28;20017;-67
2023/12/07 02:22:44;;;;;;;14.90;7.13;;;1.00;99.90;;;;;;5092299;28;20013;-67
2023/12/07 02:25:10;;;;;;;26.10;8.73;;;1.00;99.90;;;;;;5092370;28;20145;-67
2023/12/07 02:27:42;;;;;;;17.98;8.88;;;1.00;99.90;;;;;;5092184;28;20043;-67
2023/12/07 02:30:09;;;;;;;;;;;1.00;99.90;;;;;;5092567;28;20025;-67
2023/12/07 02:32:36;;;;;;;15.18;7.72;;;1.00;99.90;;;;;;5092180;28;19920;-67
2023/12/07 02:35:02;;;;;;;21.63;8.18;;;0.90;99.90;;;;;;5092223;28;20058;-67
2023/12/07 02:37:31;;;;;;;19.42;8.60;;;0.90;99.90;;;;;;5092254;28;20467;-67
2023/12/07 02:39:57;;;;;;;22.08;8.95;;;0.90;99.90;;;;;;5092309;28;20028;-67
2023/12/07 02:42:23;;;;;;;25.13;9.75;;;1.00;99.90;;;;;;5092170;28;20032;-67
2023/12/07 02:44:53;;;;;;;20.13;9.63;;;1.00;99.90;;;;;;5092173;28;20074;-67
2023/12/07 02:47:18;;;;;;;25.50;10.15;;;1.00;99.90;;;;;;5092217;28;20042;-67
2023/12/07 02:49:44;;;;;;;26.63;9.77;;;1.00;99.90;;;;;;5091974;28;20506;-67
2023/12/07 02:52:10;;;;;;;32.72;10.77;;;1.10;99.90;;;;;;5092224;28;20070;-67
2023/12/07 02:54:36;;;;;;;20.13;9.48;;;1.10;99.90;;;;;;5091960;28;20013;-68
2023/12/07 02:57:02;;;;;;;34.55;9.38;;;1.10;99.90;;;;;;5092060;28;20471;-67
2023/12/07 02:59:28;;;;;;;29.42;9.75;;;1.20;99.90;;;;;;5091853;28;20076;-67
2023/12/07 03:01:53;;;;;;;19.05;9.60;;;1.20;99.90;;;;;;5092852;28;20031;-67
2023/12/07 03:04:19;;;;;;;33.13;9.82;;;1.20;99.90;;;;;;5095907;28;20063;-67
2023/12/07 03:06:44;;;;;;;22.27;8.10;;;1.20;99.90;;;;;;5095760;28;20070;-67
2023/12/07 03:09:10;;;;;;;28.67;9.88;;;1.20;99.90;;;;;;5095500;28;20044;-68
2023/12/07 03:11:35;;;;;;;20.77;8.57;;;1.30;99.90;;;;;;5095687;28;20040;-67
2023/12/07 03:14:01;;;;;;;24.63;8.27;;;1.30;99.90;;;;;;5095526;28;20028;-68
2023/12/07 03:16:27;;;;;;;19.95;9.70;;;1.30;99.90;;;;;;5095568;28;20051;-67
2023/12/07 03:18:52;;;;;;;22.23;8.85;;;1.30;99.90;;;;;;5095582;28;20291;-67
2023/12/07 03:21:18;;;;;;;26.83;9.93;;;1.30;99.90;;;;;;5095483;28;20082;-67
2023/12/07 03:23:43;;;;;;;17.63;9.38;;;1.40;99.90;;;;;;5095381;28;20029;-67
2023/12/07 03:26:09;;;;;;;24.00;9.52;;;1.40;99.90;;;;;;5094396;28;20025;-67
2023/12/07 03:28:34;;;;;;;23.58;9.57;;;1.40;99.90;;;;;;5095301;28;20062;-67
2023/12/07 03:31:00;;;;;;;25.65;9.73;;;1.40;99.90;;;;;;5093918;28;20032;-68
2023/12/07 03:33:26;;;;;;;23.02;9.00;;;1.30;99.90;;;;;;5095136;28;20056;-67
2023/12/07 03:35:51;;;;;;;22.05;8.52;;;1.30;99.90;;;;;;5095182;28;20036;-67
2023/12/07 03:38:17;;;;;;;19.48;9.38;;;1.30;99.90;;;;;;5095179;28;20037;-67
2023/12/07 03:40:42;;;;;;;20.65;10.05;;;1.30;99.90;;;;;;5095085;28;20032;-67
2023/12/07 03:43:08;;;;;;;23.75;10.02;;;1.30;99.90;;;;;;5095135;28;20028;-67
2023/12/07 03:45:34;;;;;;;31.80;10.00;;;1.40;99.90;;;;;;5095225;28;20021;-67
2023/12/07 03:47:59;;;;;;;19.38;9.68;;;1.40;99.90;;;;;;5093921;28;20037;-67
2023/12/07 03:50:25;;;;;;;30.40;10.30;;;1.40;99.90;;;;;;5094958;28;20032;-67
2023/12/07 03:52:50;;;;;;;20.58;8.95;;;1.40;99.90;;;;;;5094871;28;20029;-67
2023/12/07 03:55:16;;;;;;;21.70;9.18;;;1.40;99.90;;;;;;5094893;28;20047;-67
2023/12/07 03:57:42;;;;;;;20.58;8.65;;;1.40;99.90;;;;;;5094827;28;20024;-67
2023/12/07 04:00:10;;;;;;;31.40;9.68;;;1.40;99.90;;;;;;5094559;28;20033;-67
2023/12/07 04:02:36;;;;;;;24.67;9.85;;;1.40;99.90;;;;;;5094829;28;20028;-67
2023/12/07 04:05:02;;;;;;;21.40;9.68;;;1.40;99.90;;;;;;5093704;28;20033;-67
2023/12/07 04:07:30;;;;;;;34.65;9.77;;;1.40;99.90;;;;;;5094556;28;20032;-67
2023/12/07 04:09:57;;;;;;;17.85;9.10;;;1.30;99.90;;;;;;5094566;28;20036;-67
2023/12/07 04:12:23;;;;;;;30.23;10.25;;;1.30;99.90;;;;;;5094364;28;20024;-68
2023/12/07 04:14:50;;;;;;;20.70;9.50;;;1.30;99.90;;;;;;5094625;28;20108;-66
2023/12/07 04:17:16;;;;;;;21.70;9.60;;;1.30;99.90;;;;;;5094573;28;20021;-67
2023/12/07 04:19:41;;;;;;;24.02;9.93;;;1.30;99.90;;;;;;5094246;28;20036;-67
2023/12/07 04:22:07;;;;;;;20.40;10.13;;;1.30;99.90;;;;;;5094312;28;20100;-67
2023/12/07 04:24:32;;;;;;;26.63;9.85;;;1.30;99.90;;;;;;5094385;28;20032;-67
2023/12/07 04:26:58;;;;;;;37.35;10.00;;;1.30;99.90;;;;;;5094338;28;20036;-67
2023/12/07 04:29:23;;;;;;;22.10;8.98;;;1.30;99.90;;;;;;5093965;28;20036;-67
2023/12/07 04:31:49;;;;;;;34.40;10.35;;;1.30;99.90;;;;;;5093900;28;20120;-67
2023/12/07 04:34:15;;;;;;;18.75;9.23;;;1.30;99.90;;;;;;5094159;28;20440;-67
2023/12/07 04:36:40;;;;;;;22.80;10.45;;;1.30;99.90;;;;;;5094051;28;20044;-67
2023/12/07 04:39:06;;;;;;;28.88;9.63;;;1.40;99.90;;;;;;5094090;28;20021;-67
2023/12/07 04:41:32;;;;;;;31.05;9.90;;;1.30;99.90;;;;;;5094101;28;20075;-67
2023/12/07 04:43:57;;;;;;;22.95;8.82;;;1.30;99.90;;;;;;5093974;28;20498;-67
2023/12/07 04:46:23;;;;;;;21.02;9.25;;;1.30;99.90;;;;;;5093932;28;20118;-67
2023/12/07 04:48:49;;;;;;;18.42;9.25;;;1.30;99.90;;;;;;5093820;28;20055;-66
2023/12/07 04:51:14;;;;;;;23.42;10.05;;;1.30;99.90;;;;;;5093756;28;20056;-66
2023/12/07 04:53:40;;;;;;;34.47;10.50;;;1.30;99.90;;;;;;5093761;28;20029;-66
2023/12/07 04:56:06;;;;;;;31.17;10.00;;;1.30;99.90;;;;;;5093655;28;20094;-67
2023/12/07 04:58:32;;;;;;;23.67;10.45;;;1.30;99.90;;;;;;5092681;28;20040;-67
2023/12/07 05:00:57;;;;;;;24.20;10.48;;;1.30;99.90;;;;;;5093388;28;20028;-67
2023/12/07 05:03:23;;;;;;;23.42;9.50;;;1.40;99.90;;;;;;5093572;28;20109;-67
2023/12/07 05:05:49;;;;;;;21.10;10.55;;;1.40;99.90;;;;;;5093430;28;20032;-67
2023/12/07 05:08:15;;;;;;;41.67;10.73;;;1.40;99.90;;;;;;5093353;28;20048;-67
2023/12/07 05:10:41;;;;;;;27.30;9.65;;;1.40;99.90;;;;;;5093378;28;20017;-67
2023/12/07 05:13:06;;;;;;;20.85;10.00;;;1.40;99.90;;;;;;5093350;28;20040;-67
2023/12/07 05:15:32;;;;;;;25.83;10.05;;;1.40;99.90;;;;;;5093352;28;20020;-67
2023/12/07 05:17:58;;;;;;;22.05;10.00;;;1.40;99.90;;;;;;5092179;28;20025;-67
2023/12/07 05:20:24;;;;;;;24.50;10.48;;;1.40;99.90;;;;;;5093078;28;20029;-67
2023/12/07 05:22:50;;;;;;;21.30;9.45;;;1.40;99.90;;;;;;5093167;28;20024;-67
2023/12/07 05:25:15;;;;;;;23.75;9.98;;;1.40;99.90;;;;;;5092507;28;20084;-67
2023/12/07 05:27:41;;;;;;;21.13;9.68;;;1.40;99.90;;;;;;5092933;28;20036;-67
2023/12/07 05:30:07;;;;;;;34.90;10.05;;;1.40;99.90;;;;;;5092808;28;20082;-67
2023/12/07 05:32:33;;;;;;;26.70;9.80;;;1.30;99.90;;;;;;5092774;28;20048;-67
2023/12/07 05:34:58;;;;;;;27.60;10.82;;;1.40;99.90;;;;;;5092792;28;20098;-67
2023/12/07 05:37:24;;;;;;;20.23;9.40;;;1.40;99.90;;;;;;5092993;28;20024;-67
2023/12/07 05:39:50;;;;;;;28.63;10.60;;;1.40;99.90;;;;;;5092831;28;20062;-67
2023/12/07 05:42:16;;;;;;;20.13;8.88;;;1.40;99.90;;;;;;5092892;28;20036;-67
2023/12/07 05:44:41;;;;;;;30.17;10.18;;;1.50;99.90;;;;;;5092818;28;20035;-67
2023/12/07 05:47:07;;;;;;;37.10;10.10;;;1.40;99.90;;;;;;5091871;28;20029;-67
2023/12/07 05:49:33;;;;;;;32.95;10.32;;;1.50;99.90;;;;;;5092598;28;20096;-67
2023/12/07 05:51:59;;;;;;;22.08;9.70;;;1.40;99.90;;;;;;5092683;28;20033;-67
2023/12/07 05:54:25;;;;;;;19.60;9.80;;;1.50;99.90;;;;;;5092693;28;20028;-67
2023/12/07 05:56:50;;;;;;;24.15;9.48;;;1.50;99.90;;;;;;5092690;28;20072;-67
2023/12/07 05:59:16;;;;;;;20.27;9.05;;;1.50;99.90;;;;;;5092449;28;20024;-66
2023/12/07 06:01:43;;;;;;;24.05;9.55;;;1.50;99.90;;;;;;5092573;28;20059;-67
2023/12/07 06:04:12;;;;;;;20.92;8.85;;;1.50;99.90;;;;;;5092516;28;20028;-67
2023/12/07 06:06:38;;;;;;;27.10;9.32;;;1.50;99.90;;;;;;5092501;28;20033;-67
2023/12/07 06:09:05;;;;;;;31.70;10.10;;;1.50;99.90;;;;;;5092344;28;20047;-67
2023/12/07 06:11:31;;;;;;;28.58;8.68;;;1.50;99.90;;;;;;5092467;28;20023;-66
2023/12/07 06:13:58;;;;;;;24.13;9.43;;;1.40;99.90;;;;;;5092440;28;20024;-67
2023/12/07 06:16:25;;;;;;;19.10;9.10;;;1.40;99.90;;;;;;5092450;28;20027;-67
2023/12/07 06:18:51;;;;;;;28.35;9.82;;;1.40;99.90;;;;;;5092274;28;20047;-67
2023/12/07 06:21:16;;;;;;;39.10;9.35;;;1.40;99.90;;;;;;5074713;28;20025;-67
2023/12/07 06:23:42;;;;;;;22.02;10.25;;;1.40;99.90;;;;;;5092361;28;20387;-66
2023/12/07 06:26:07;;;;;;;20.17;8.90;;;1.50;99.90;;;;;;5092361;28;20025;-67
2023/12/07 06:28:33;;;;;;;20.73;8.18;;;1.40;99.90;;;;;;5092223;28;20033;-67
2023/12/07 06:31:06;;;;;;;27.80;8.13;;;1.50;99.90;;;;;;5092063;28;20017;-68
2023/12/07 06:33:31;;;;;;;24.05;8.52;;;1.50;99.90;;;;;;5092090;28;20064;-67
2023/12/07 06:35:57;;;;;;;18.27;7.22;;;1.40;99.90;;;;;;5092246;28;20029;-67
2023/12/07 06:38:22;;;;;;;27.67;7.60;;;1.40;99.90;;;;;;5095639;28;20039;-67
2023/12/07 06:40:48;;;;;;;15.25;7.43;;;1.40;99.90;;;;;;5096323;28;20036;-67
2023/12/07 06:43:14;;;;;;;19.20;7.80;;;1.40;99.90;;;;;;5096258;28;20037;-66
2023/12/07 06:45:40;;;;;;;21.10;8.07;;;1.40;99.90;;;;;;5096153;28;20126;-67
2023/12/07 06:48:05;;;;;;;21.10;8.32;;;1.40;99.90;;;;;;5096021;28;20562;-67
2023/12/07 06:50:31;;;;;;;29.65;7.75;;;1.40;99.90;;;;;;5096190;28;20032;-67
2023/12/07 06:52:57;;;;;;;17.13;6.90;;;1.40;99.90;;;;;;5096175;28;20283;-67
2023/12/07 06:55:23;;;;;;;18.08;6.25;;;1.40;99.90;;;;;;5095046;28;20029;-67
2023/12/07 06:57:48;;;;;;;29.67;7.32;;;1.40;99.90;;;;;;5095939;28;20024;-68
2023/12/07 07:00:14;;;;;;;19.75;7.45;;;1.40;99.90;;;;;;5095726;28;20032;-67
2023/12/07 07:02:40;;;;;;;21.75;7.95;;;1.40;99.90;;;;;;5095838;28;20581;-67
2023/12/07 07:05:06;;;;;;;16.75;6.55;;;1.40;99.90;;;;;;5095834;28;20034;-67
2023/12/07 07:07:32;;;;;;;18.77;6.72;;;1.40;99.90;;;;;;5095739;28;20017;-67
2023/12/07 07:09:58;;;;;;;14.70;5.75;;;1.40;99.90;;;;;;5097732;28;20017;-67
2023/12/07 07:12:24;;;;;;;20.40;5.90;;;1.50;99.90;;;;;;5095647;28;20022;-67
2023/12/07 07:14:49;;;;;;;16.15;6.10;;;1.50;99.90;;;;;;5095663;28;20084;-67
2023/12/07 07:17:15;;;;;;;15.68;6.75;;;1.50;99.90;;;;;;5095498;28;20058;-68
2023/12/07 07:19:41;;;;;;;20.73;7.57;;;1.50;99.90;;;;;;5095574;28;20047;-68
2023/12/07 07:22:08;;;;;;;26.13;5.53;;;1.50;99.90;;;;;;5095520;28;20036;-67
2023/12/07 07:24:34;;;;;;;25.48;6.15;;;1.60;99.90;;;;;;5095458;28;20059;-67
2023/12/07 07:27:00;;;;;;;31.73;6.00;;;1.60;99.90;;;;;;5095522;28;20024;-67
2023/12/07 07:29:26;;;;;;;19.90;6.03;;;1.60;99.90;;;;;;5095047;28;20078;-67
2023/12/07 07:31:51;;;;;;;15.80;5.57;;;1.60;99.90;;;;;;5095112;28;20531;-68
2023/12/07 07:34:17;;;;;;;21.48;6.90;;;1.60;99.90;;;;;;5095219;28;20046;-67
2023/12/07 07:36:42;;;;;;;27.95;6.95;;;1.60;99.90;;;;;;5095242;28;20475;-68
2023/12/07 07:39:08;;;;;;;19.23;5.70;;;1.70;99.90;;;;;;5095188;28;20032;-67
2023/12/07 07:41:36;;;;;;;14.32;6.45;;;1.70;99.90;;;;;;5095156;28;20028;-67
2023/12/07 07:44:02;;;;;;;17.90;6.13;;;1.70;99.90;;;;;;5095094;28;20032;-67
2023/12/07 07:46:28;;;;;;;21.13;4.60;;;1.70;99.90;;;;;;5095068;28;20048;-67
2023/12/07 07:48:53;;;;;;;15.35;5.35;;;1.80;99.90;;;;;;5094154;28;20080;-67
2023/12/07 07:51:19;;;;;;;19.27;5.38;;;1.80;99.90;;;;;;5094942;28;20047;-67
2023/12/07 07:53:44;;;;;;;27.52;6.68;;;1.80;99.90;;;;;;5094322;28;20374;-68
2023/12/07 07:56:10;;;;;;;23.38;5.75;;;1.80;99.90;;;;;;5093851;28;20025;-67
2023/12/07 07:58:36;;;;;;;13.15;4.95;;;1.80;99.90;;;;;;5094383;28;20039;-67
2023/12/07 08:01:02;;;;;;;12.02;5.07;;;1.80;99.90;;;;;;5093764;28;20036;-68
2023/12/07 08:03:27;;;;;;;19.25;6.43;;;1.80;99.90;;;;;;5094704;28;20040;-67
2023/12/07 08:05:53;;;;;;;13.27;4.88;;;1.80;99.90;;;;;;5094633;28;20055;-68
2023/12/07 08:08:18;;;;;;;15.73;5.93;;;1.90;99.90;;;;;;5094562;28;20047;-67
2023/12/07 08:10:44;;;;;;;17.20;5.25;;;1.90;99.90;;;;;;5094584;28;20088;-67
2023/12/07 08:13:10;;;;;;;14.35;5.40;;;1.90;99.90;;;;;;5094569;28;20033;-67
2023/12/07 08:15:35;;;;;;;16.10;5.50;;;1.90;99.90;;;;;;5094547;28;20111;-67
2023/12/07 08:18:02;;;;;;;11.98;5.10;;;1.90;99.90;;;;;;5094490;28;20034;-67
2023/12/07 08:20:27;;;;;;;14.30;5.28;;;1.90;99.90;;;;;;5094410;28;20017;-67
2023/12/07 08:22:53;;;;;;;16.05;6.70;;;2.00;99.90;;;;;;5094402;28;20027;-67
2023/12/07 08:25:19;;;;;;;16.40;6.13;;;2.00;99.90;;;;;;5094328;28;20076;-68
2023/12/07 08:27:45;;;;;;;15.10;5.40;;;2.00;99.90;;;;;;5094219;28;20149;-67
2023/12/07 08:30:12;;;;;;;11.38;4.70;;;2.00;99.90;;;;;;5094046;28;20032;-68
2023/12/07 08:32:38;;;;;;;14.35;4.68;;;2.10;99.90;;;;;;5094071;28;20055;-68
2023/12/07 08:35:05;;;;;;;15.63;5.75;;;2.10;99.90;;;;;;5094157;28;20044;-67
2023/12/07 08:37:32;;;;;;;15.52;5.30;;;2.10;99.90;;;;;;5094098;28;20017;-67
2023/12/07 08:39:58;;;;;;;13.98;5.32;;;2.10;99.90;;;;;;5093113;28;20021;-67
2023/12/07 08:42:23;;;;;;;11.38;4.63;;;2.20;99.90;;;;;;5093575;28;20046;-67
2023/12/07 08:44:49;;;;;;;15.00;5.25;;;2.20;99.90;;;;;;5093747;28;20037;-67
2023/12/07 08:47:15;;;;;;;20.30;5.95;;;2.20;99.90;;;;;;5093644;28;20033;-67
2023/12/07 08:49:40;;;;;;;13.95;5.15;;;2.20;99.90;;;;;;5093036;28;20055;-67
2023/12/07 08:52:06;;;;;;;13.50;5.10;;;2.20;99.90;;;;;;5092387;28;20439;-67
2023/12/07 08:54:32;;;;;;;15.35;5.72;;;2.20;99.90;;;;;;5093445;28;20017;-67
2023/12/07 08:56:58;;;;;;;19.48;5.53;;;2.30;99.90;;;;;;5093339;28;20024;-67
2023/12/07 08:59:23;;;;;;;20.15;5.55;;;2.20;99.90;;;;;;5090995;28;20030;-67
2023/12/07 09:01:49;;;;;;;18.55;6.68;;;2.30;99.90;;;;;;5093619;28;20025;-68
2023/12/07 09:04:15;;;;;;;19.92;7.53;;;2.30;99.90;;;;;;5093615;28;20032;-68
2023/12/07 09:06:40;;;;;;;19.38;6.72;;;2.30;99.90;;;;;;5093424;28;20067;-68
2023/12/07 09:09:06;;;;;;;14.98;6.32;;;2.40;99.90;;;;;;5093360;28;20055;-67
2023/12/07 09:11:32;;;;;;;17.52;6.43;;;2.40;99.90;;;;;;5093384;28;20039;-68
2023/12/07 09:13:58;;;;;;;14.77;5.78;;;2.50;99.90;;;;;;5093226;28;20033;-67
2023/12/07 09:16:25;;;;;;;17.33;5.47;;;2.50;99.90;;;;;;5092246;28;20078;-67
2023/12/07 09:18:51;;;;;;;20.45;6.82;;;2.50;99.90;;;;;;5093228;28;20057;-67
2023/12/07 09:21:17;;;;;;;21.02;7.00;;;2.50;99.90;;;;;;5093213;28;20029;-67
2023/12/07 09:23:42;;;;;;;21.73;6.97;;;2.60;99.90;;;;;;5093083;28;20444;-68
2023/12/07 09:26:08;;;;;;;17.52;6.22;;;2.60;99.90;;;;;;5093073;28;20029;-67
2023/12/07 09:28:33;;;;;;;19.27;7.25;;;2.60;99.90;;;;;;5092958;28;20038;-68
2023/12/07 09:30:59;;;;;;;24.80;7.25;;;2.60;99.90;;;;;;5092874;28;20048;-68
2023/12/07 09:33:25;;;;;;;21.60;7.40;;;2.70;99.90;;;;;;5092859;28;20040;-68
2023/12/07 09:35:51;;;;;;;37.15;9.20;;;2.80;99.90;;;;;;5092854;28;20033;-67
2023/12/07 09:38:17;;;;;;;25.15;7.03;;;2.80;99.90;;;;;;5092957;28;20084;-67
2023/12/07 09:40:43;;;;;;;27.08;7.20;;;2.80;99.90;;;;;;5092841;28;20027;-67
2023/12/07 09:43:09;;;;;;;22.02;8.30;;;2.90;99.90;;;;;;5092780;28;20478;-67
2023/12/07 09:45:34;;;;;;;17.80;7.25;;;2.90;99.90;;;;;;5092814;28;20020;-67
2023/12/07 09:48:00;;;;;;;22.35;8.00;;;2.90;99.90;;;;;;5092707;28;20056;-67
2023/12/07 09:50:27;;;;;;;27.40;7.53;;;3.00;99.90;;;;;;5092782;28;20017;-67
2023/12/07 09:52:57;;;;;;;21.63;8.35;;;3.00;99.90;;;;;;5092768;28;20066;-67
2023/12/07 09:55:24;;;;;;;25.65;8.93;;;3.10;99.90;;;;;;5092761;28;20020;-67
2023/12/07 09:57:51;;;;;;;28.40;8.63;;;3.20;99.90;;;;;;5092701;28;20054;-68
2023/12/07 10:00:17;;;;;;;26.10;8.93;;;3.20;99.90;;;;;;5092382;28;20040;-67
2023/12/07 10:02:46;;;;;;;25.73;9.60;;;3.20;99.90;;;;;;5092622;28;20036;-67
2023/12/07 10:05:13;;;;;;;25.63;9.10;;;3.30;99.90;;;;;;5092539;28;20029;-68
2023/12/07 10:07:42;;;;;;;21.38;9.30;;;3.40;99.90;;;;;;5092640;28;20056;-67
2023/12/07 10:10:13;;;;;;;27.17;9.85;;;3.40;99.90;;;;;;5092425;28;20048;-68
2023/12/07 10:12:46;;;;;;;27.08;9.95;;;3.40;99.90;;;;;;5092333;28;20020;-67
2023/12/07 10:15:13;;;;;;;24.85;10.02;;;3.50;99.90;;;;;;5092493;28;20024;-68
2023/12/07 10:17:56;;;;;;;21.30;8.77;;;3.50;99.90;;;;;;5092467;28;20032;-67
2023/12/07 10:20:23;;;;;;;23.85;8.45;;;3.60;99.90;;;;;;5092263;28;20013;-68
2023/12/07 10:23:03;;;;;;;23.48;8.00;;;3.70;99.90;;;;;;5092343;28;20013;-68
2023/12/07 10:25:30;;;;;;;27.00;9.20;;;3.70;99.90;;;;;;5092377;28;20386;-67
2023/12/07 10:27:56;;;;;;;23.67;8.85;;;3.80;99.90;;;;;;5092287;28;20070;-67
2023/12/07 10:30:25;;;;;;;27.70;8.85;;;3.90;99.90;;;;;;5092124;28;20250;-67
2023/12/07 10:32:51;;;;;;;27.80;9.98;;;3.90;99.90;;;;;;5092069;28;20060;-67
2023/12/07 10:35:18;;;;;;;24.38;9.73;;;3.90;99.90;;;;;;5092305;28;20032;-67
2023/12/07 10:37:44;;;;;;;28.35;9.70;;;4.00;99.90;;;;;;5092281;28;20150;-67
2023/12/07 10:40:10;;;;;;;28.55;10.20;;;4.00;99.90;;;;;;5092280;28;20024;-67
2023/12/07 10:42:37;;;;;;;30.65;10.38;;;4.00;99.90;;;;;;5092158;28;20021;-67
2023/12/07 10:45:07;;;;;;;31.17;11.77;;;4.10;99.90;;;;;;5092170;28;20050;-67
2023/12/07 10:47:37;;;;;;;27.35;10.70;;;4.10;99.90;;;;;;5092058;28;20394;-67
2023/12/07 10:50:10;;;;;;;31.30;10.35;;;4.20;99.90;;;;;;5092053;28;20052;-67
2023/12/07 10:52:39;;;;;;;30.52;10.13;;;4.20;99.90;;;;;;5092101;28;20055;-67
2023/12/07 10:55:13;;;;;;;29.67;10.30;;;4.30;99.90;;;;;;5092176;28;20017;-67
2023/12/07 10:57:39;;;;;;;30.23;11.23;;;4.30;99.90;;;;;;5092078;28;20390;-67
2023/12/07 11:00:07;;;;;;;28.38;11.15;;;4.30;99.90;;;;;;5091821;28;20074;-68
2023/12/07 11:02:34;;;;;;;28.88;11.68;;;4.40;99.90;;;;;;5091992;28;20059;-67
2023/12/07 11:05:01;;;;;;;32.47;11.88;;;4.50;99.90;;;;;;5091978;28;20036;-67
2023/12/07 11:07:40;;;;;;;28.40;11.43;;;4.50;99.90;;;;;;5092043;28;20029;-67
2023/12/07 11:10:36;;;;;;;31.92;10.93;;;4.50;99.90;;;;;;5092028;28;20027;-67
2023/12/07 11:13:15;;;;;;;26.27;9.88;;;4.60;99.90;;;;;;5087878;28;20092;-67
2023/12/07 11:15:41;;;;;;;25.88;10.70;;;4.60;99.90;;;;;;5091869;28;20016;-67
2023/12/07 11:18:07;;;;;;;28.55;11.40;;;4.60;99.90;;;;;;5091930;28;20044;-67
2023/12/07 11:20:45;;;;;;;28.60;11.35;;;4.60;99.90;;;;;;5091758;28;20028;-67
2023/12/07 11:23:12;;;;;;;35.33;11.43;;;4.60;99.90;;;;;;5093104;28;20052;-67
2023/12/07 11:25:37;;;;;;;27.70;11.82;;;4.70;99.90;;;;;;5095560;28;20021;-67
2023/12/07 11:28:07;;;;;;;33.38;12.43;;;4.70;99.90;;;;;;5095361;28;20052;-67
2023/12/07 11:30:36;;;;;;;29.17;11.43;;;4.80;99.90;;;;;;5095198;28;20020;-67
2023/12/07 11:33:04;;;;;;;29.60;11.80;;;4.80;99.90;;;;;;5095117;28;20047;-68
2023/12/07 11:35:30;;;;;;;32.17;12.15;;;4.80;99.90;;;;;;5094098;28;20040;-67
2023/12/07 11:38:06;;;;;;;26.98;10.35;;;4.80;99.90;;;;;;5095272;28;20017;-67
2023/12/07 11:40:40;;;;;;;27.05;11.45;;;4.80;99.90;;;;;;5095291;28;20021;-68
2023/12/07 11:43:07;;;;;;;24.83;10.75;;;4.80;99.90;;;;;;5095250;28;20021;-68
2023/12/07 11:45:51;;;;;;;29.08;11.50;;;4.80;99.90;;;;;;5095136;28;20027;-67
2023/12/07 11:48:18;;;;;;;26.67;11.00;;;4.80;99.90;;;;;;5095060;28;20059;-67
2023/12/07 11:51:05;;;;;;;28.92;11.55;;;4.80;99.90;;;;;;5095059;28;20016;-67
2023/12/07 11:53:32;;;;;;;30.83;11.65;;;4.80;99.90;;;;;;5094982;28;20036;-68
2023/12/07 11:56:03;;;;;;;32.13;12.43;;;4.80;99.90;;;;;;5094852;28;20048;-67
2023/12/07 11:58:30;;;;;;;31.33;12.30;;;4.90;99.90;;;;;;5094773;28;20036;-68
2023/12/07 12:00:57;;;;;;;32.65;12.60;;;5.00;99.90;;;;;;5094766;28;20085;-68
2023/12/07 12:03:24;;;;;;;32.08;12.43;;;5.10;99.90;;;;;;5094769;28;20029;-67
2023/12/07 12:05:49;;;;;;;34.55;13.43;;;5.20;99.90;;;;;;5094594;28;20051;-68
2023/12/07 12:08:17;;;;;;;29.77;11.90;;;5.30;99.90;;;;;;5094572;28;20032;-67
2023/12/07 12:10:43;;;;;;;29.17;11.63;;;5.30;99.90;;;;;;5094757;28;20024;-67
2023/12/07 12:13:09;;;;;;;29.85;12.82;;;5.30;99.90;;;;;;5094671;28;20056;-67
2023/12/07 12:15:35;;;;;;;26.38;10.82;;;5.20;99.90;;;;;;5106731;28;20024;-67
2023/12/07 12:18:01;;;;;;;31.20;12.23;;;5.10;99.90;;;;;;5113548;28;20028;-67
2023/12/07 12:20:27;;;;;;;29.48;11.73;;;5.10;99.90;;;;;;5113733;28;20020;-67
2023/12/07 12:22:54;;;;;;;28.38;11.02;;;5.00;99.90;;;;;;5113279;28;20020;-68
2023/12/07 12:25:46;;;;;;;31.00;11.93;;;4.90;99.90;;;;;;5113840;28;20040;-67
2023/12/07 12:28:19;;;;;;;30.52;12.43;;;5.00;99.90;;;;;;5111618;28;20051;-67
2023/12/07 12:30:44;;;;;;;;;;;5.00;99.90;;;;;;5114807;28;20040;-67
2023/12/07 12:33:10;;;;;;;36.17;11.75;;;5.00;99.90;;;;;;5114351;28;19927;-68
2023/12/07 12:35:36;;;;;;;29.05;11.88;;;4.90;99.90;;;;;;5114415;28;20092;-67
2023/12/07 12:38:01;;;;;;;28.73;11.32;;;4.90;99.90;;;;;;5114370;28;20023;-67
2023/12/07 12:40:31;;;;;;;33.63;13.00;;;4.90;99.90;;;;;;5114431;28;20103;-67
2023/12/07 12:42:57;;;;;;;34.13;11.93;;;4.80;99.90;;;;;;5114296;28;20047;-68